createdAt,value
2023-03-25T00:01:58.238Z,9.48
2023-03-25T00:07:03.160Z,9.52
2023-03-25T00:12:06.936Z,9.54
2023-03-25T00:17:10.522Z,9.53
2023-03-25T00:22:15.732Z,9.53
2023-03-25T00:27:19.142Z,9.57
2023-03-25T00:32:22.286Z,9.56
2023-03-25T00:37:27.318Z,9.54
2023-03-25T00:42:30.637Z,9.56
2023-03-25T00:47:33.931Z,9.54
2023-03-25T00:52:38.590Z,9.49
2023-03-25T00:57:41.961Z,9.51
2023-03-25T01:02:45.813Z,9.47
2023-03-25T01:07:53.049Z,9.48
2023-03-25T01:12:56.600Z,9.41
2023-03-25T01:18:00.356Z,9.21
2023-03-25T01:23:04.757Z,9.19
2023-03-25T01:28:08.034Z,9.16
2023-03-25T01:33:11.766Z,9.12
2023-03-25T01:38:16.295Z,9.09
2023-03-25T01:43:20.014Z,9.00
2023-03-25T01:48:28.060Z,9.07
2023-03-25T01:53:33.954Z,8.98
2023-03-25T01:58:37.930Z,8.96
2023-03-25T02:03:45.989Z,9.01
2023-03-25T02:08:53.748Z,9.03
2023-03-25T02:13:58.974Z,8.88
2023-03-25T02:19:32.985Z,8.98
2023-03-25T02:25:09.956Z,8.84
2023-03-25T02:30:57.241Z,8.73
2023-03-25T02:36:57.680Z,8.85
2023-03-25T02:42:09.213Z,8.85
2023-03-25T02:47:19.009Z,8.86
2023-03-25T02:52:28.085Z,8.74
2023-03-25T02:57:36.109Z,8.68
2023-03-25T03:02:40.711Z,8.78
2023-03-25T03:07:49.134Z,8.86
2023-03-25T03:13:06.888Z,8.88
2023-03-25T03:18:20.047Z,8.89
2023-03-25T03:23:27.396Z,8.90
2023-03-25T03:28:40.796Z,8.90
2023-03-25T03:33:50.657Z,8.84
2023-03-25T03:38:59.559Z,8.87
2023-03-25T03:44:08.208Z,8.79
2023-03-25T03:49:17.322Z,8.76
2023-03-25T03:54:24.842Z,8.70
2023-03-25T03:59:37.460Z,8.61
2023-03-25T04:04:42.870Z,8.61
2023-03-25T04:09:56.699Z,8.53
2023-03-25T04:15:04.362Z,8.53
2023-03-25T04:20:11.681Z,8.56
2023-03-25T04:25:15.386Z,8.66
2023-03-25T04:30:19.862Z,8.70
2023-03-25T04:35:23.188Z,8.76
2023-03-25T04:40:27.019Z,8.77
2023-03-25T04:45:36.488Z,8.78
2023-03-25T04:50:43.545Z,8.81
2023-03-25T04:55:48.225Z,8.75
2023-03-25T05:00:54.049Z,8.73
2023-03-25T05:05:57.249Z,8.75
2023-03-25T05:11:00.355Z,8.73
2023-03-25T05:16:05.006Z,8.69
2023-03-25T05:21:09.031Z,8.70
2023-03-25T05:26:13.414Z,8.63
2023-03-25T05:31:18.601Z,8.61
2023-03-25T05:36:25.106Z,8.62
2023-03-25T05:41:33.221Z,8.57
2023-03-25T05:46:37.929Z,8.61
2023-03-25T05:51:42.174Z,8.63
2023-03-25T05:56:45.363Z,8.66
2023-03-25T06:01:57.557Z,8.62
2023-03-25T06:07:01.594Z,8.65
2023-03-25T06:12:05.670Z,8.67
2023-03-25T06:17:11.448Z,8.71
2023-03-25T06:22:14.600Z,8.97
2023-03-25T06:27:19.599Z,9.09
2023-03-25T06:32:26.048Z,9.14
2023-03-25T06:37:29.328Z,8.87
2023-03-25T06:42:33.480Z,8.79
2023-03-25T06:47:57.347Z,8.57
2023-03-25T06:53:00.640Z,8.61
2023-03-25T06:58:03.955Z,8.62
2023-03-25T07:03:08.779Z,8.57
2023-03-25T07:08:13.440Z,8.51
2023-03-25T07:13:16.510Z,8.48
2023-03-25T07:18:21.209Z,8.38
2023-03-25T07:23:24.371Z,8.38
2023-03-25T07:28:27.853Z,8.56
2023-03-25T07:33:32.461Z,8.90
2023-03-25T07:38:36.942Z,8.86
2023-03-25T07:43:40.531Z,9.00
2023-03-25T07:48:57.065Z,9.30
2023-03-25T07:54:05.020Z,9.32
2023-03-25T07:59:09.681Z,9.05
2023-03-25T08:04:14.669Z,9.14
2023-03-25T08:09:18.059Z,9.27
2023-03-25T08:14:21.123Z,9.37
2023-03-25T08:19:25.832Z,9.43
2023-03-25T08:24:30.456Z,9.48
2023-03-25T08:29:34.692Z,9.91
2023-03-25T08:34:40.273Z,9.81
2023-03-25T08:39:45.233Z,9.98
2023-03-25T08:44:50.870Z,10.38
2023-03-25T08:49:55.336Z,10.36
2023-03-25T08:54:58.738Z,10.65
2023-03-25T09:00:01.854Z,10.22
2023-03-25T09:05:07.103Z,10.05
2023-03-25T09:10:13.459Z,10.03
2023-03-25T09:15:16.599Z,10.28
2023-03-25T09:20:22.108Z,10.54
2023-03-25T09:25:25.911Z,10.91
2023-03-25T09:30:29.171Z,11.20
2023-03-25T09:35:33.917Z,11.35
2023-03-25T09:40:39.039Z,11.48
2023-03-25T09:45:44.913Z,11.51
2023-03-25T09:50:50.365Z,11.17
2023-03-25T09:55:54.380Z,11.19
2023-03-25T10:01:04.844Z,11.08
2023-03-25T10:06:19.744Z,11.54
2023-03-25T10:11:34.180Z,11.70
2023-03-25T10:16:51.550Z,11.98
2023-03-25T10:21:59.829Z,12.40
2023-03-25T10:27:06.890Z,12.22
2023-03-25T10:32:18.337Z,12.08
2023-03-25T10:37:29.000Z,12.08
2023-03-25T10:42:36.418Z,12.25
2023-03-25T10:47:42.149Z,12.36
2023-03-25T10:52:51.781Z,12.54
2023-03-25T10:57:56.948Z,12.65
2023-03-25T11:03:02.133Z,12.39
2023-03-25T11:08:18.504Z,12.41
2023-03-25T11:13:27.212Z,12.27
2023-03-25T11:18:34.233Z,12.27
2023-03-25T11:23:43.725Z,12.14
2023-03-25T11:28:49.129Z,12.15
2023-03-25T11:34:06.246Z,12.82
2023-03-25T11:39:18.421Z,13.04
2023-03-25T11:44:25.563Z,13.33
2023-03-25T11:49:35.558Z,13.45
2023-03-25T11:54:42.058Z,13.14
2023-03-25T11:59:47.324Z,13.35
2023-03-25T12:04:58.948Z,13.90
2023-03-25T12:10:07.154Z,13.52
2023-03-25T12:15:22.201Z,13.66
2023-03-25T12:20:31.835Z,13.57
2023-03-25T12:26:00.845Z,13.73
2023-03-25T12:31:16.593Z,13.20
2023-03-25T12:36:31.266Z,13.03
2023-03-25T12:41:42.004Z,13.18
2023-03-25T12:46:59.512Z,13.24
2023-03-25T12:52:11.161Z,13.04
2023-03-25T12:57:40.652Z,13.08
2023-03-25T13:03:12.677Z,13.18
2023-03-25T13:08:21.273Z,13.67
2023-03-25T13:13:30.061Z,13.92
2023-03-25T13:18:38.122Z,14.35
2023-03-25T13:23:43.884Z,14.42
2023-03-25T13:28:51.838Z,14.10
2023-03-25T13:34:08.296Z,14.24
2023-03-25T13:39:17.611Z,14.55
2023-03-25T13:44:28.333Z,14.21
2023-03-25T13:49:35.883Z,14.26
2023-03-25T13:54:42.831Z,14.33
2023-03-25T14:00:33.322Z,14.31
2023-03-25T14:06:07.899Z,14.38
2023-03-25T14:11:21.788Z,14.05
2023-03-25T14:16:27.746Z,13.66
2023-03-25T14:21:42.098Z,13.80
2023-03-25T14:26:52.280Z,13.95
2023-03-25T14:32:07.713Z,13.72
2023-03-25T14:37:18.663Z,13.82
2023-03-25T14:42:30.398Z,13.87
2023-03-25T14:47:36.426Z,13.95
2023-03-25T14:52:44.643Z,13.85
2023-03-25T14:57:52.376Z,13.89
2023-03-25T15:03:02.611Z,14.03
2023-03-25T15:08:19.083Z,13.57
2023-03-25T15:13:32.195Z,13.78
2023-03-25T15:19:14.863Z,13.68
2023-03-25T15:24:27.422Z,13.80
2023-03-25T15:30:04.190Z,13.57
2023-03-25T15:35:37.185Z,13.78
2023-03-25T15:40:56.063Z,13.76
2023-03-25T15:46:47.210Z,13.61
2023-03-25T15:52:20.797Z,13.23
2023-03-25T15:57:30.077Z,13.07
2023-03-25T16:02:37.203Z,12.85
2023-03-25T16:07:42.697Z,12.79
2023-03-25T16:12:50.963Z,12.77
2023-03-25T16:17:54.836Z,12.43
2023-03-25T16:23:00.936Z,12.43
2023-03-25T16:28:07.619Z,12.40
2023-03-25T16:33:20.774Z,12.39
2023-03-25T16:38:25.572Z,12.24
2023-03-25T16:43:31.688Z,12.18
2023-03-25T16:48:36.856Z,12.11
2023-03-25T16:53:41.125Z,12.10
2023-03-25T16:58:58.527Z,11.85
2023-03-25T17:04:14.946Z,12.00
2023-03-25T17:09:20.903Z,11.89
2023-03-25T17:14:30.857Z,11.79
2023-03-25T17:19:38.014Z,11.62
2023-03-25T17:24:42.987Z,11.61
2023-03-25T17:29:55.391Z,11.51
2023-03-25T17:35:04.211Z,11.34
2023-03-25T17:40:11.671Z,11.27
2023-03-25T17:45:19.183Z,11.10
2023-03-25T17:50:25.407Z,11.01
2023-03-25T17:55:28.472Z,10.95
2023-03-25T18:00:34.008Z,10.93
2023-03-25T18:05:51.014Z,10.92
2023-03-25T18:10:55.834Z,10.95
2023-03-25T18:16:00.538Z,10.87
2023-03-25T18:21:04.014Z,10.92
2023-03-25T18:26:13.000Z,10.81
2023-03-25T18:31:20.960Z,10.81
2023-03-25T18:36:24.213Z,10.60
2023-03-25T18:41:27.422Z,10.55
2023-03-25T18:46:31.937Z,10.49
2023-03-25T18:51:35.093Z,10.53
2023-03-25T18:56:38.332Z,10.39
2023-03-25T19:01:43.329Z,10.26
2023-03-25T19:06:46.625Z,10.03
2023-03-25T19:11:53.269Z,9.81
2023-03-25T19:17:04.004Z,9.53
2023-03-25T19:22:10.057Z,9.73
2023-03-25T19:27:13.210Z,9.70
2023-03-25T19:32:17.990Z,9.78
2023-03-25T19:37:21.175Z,9.65
2023-03-25T19:42:24.187Z,9.64
2023-03-25T19:47:28.901Z,9.58
2023-03-25T19:52:32.108Z,9.42
2023-03-25T19:57:35.182Z,9.28
2023-03-25T20:02:42.650Z,9.20
2023-03-25T20:07:47.594Z,9.12
2023-03-25T20:12:54.066Z,9.14
2023-03-25T20:17:58.802Z,9.10
2023-03-25T20:23:01.823Z,8.98
2023-03-25T20:28:04.904Z,8.97
2023-03-25T20:33:09.438Z,9.03
2023-03-25T20:38:14.327Z,9.03
2023-03-25T20:43:17.572Z,8.95
2023-03-25T20:48:22.161Z,8.94
2023-03-25T20:53:25.947Z,8.79
2023-03-25T20:58:30.301Z,8.70
2023-03-25T21:03:38.009Z,8.61
2023-03-25T21:08:41.415Z,8.52
2023-03-25T21:13:44.456Z,8.59
2023-03-25T21:18:52.964Z,8.59
2023-03-25T21:23:56.918Z,8.43
2023-03-25T21:29:00.663Z,8.41
2023-03-25T21:34:05.076Z,8.32
2023-03-25T21:39:08.577Z,8.20
2023-03-25T21:44:12.680Z,8.17
2023-03-25T21:49:17.225Z,8.12
2023-03-25T21:54:22.015Z,8.08
2023-03-25T21:59:25.097Z,8.04
2023-03-25T22:04:29.711Z,8.00
2023-03-25T22:09:32.791Z,7.96
2023-03-25T22:14:36.245Z,7.84
2023-03-25T22:19:41.126Z,7.82
2023-03-25T22:24:47.184Z,7.74
2023-03-25T22:29:50.630Z,7.86
2023-03-25T22:34:55.154Z,8.05
2023-03-25T22:39:58.297Z,8.26
2023-03-25T22:45:01.317Z,8.37
2023-03-25T22:50:06.847Z,8.47
2023-03-25T22:55:11.512Z,8.52
2023-03-25T23:00:15.817Z,8.57
2023-03-25T23:05:20.180Z,8.62
2023-03-25T23:10:23.220Z,8.72
2023-03-25T23:15:27.863Z,8.80
2023-03-25T23:20:32.305Z,8.84
2023-03-25T23:25:36.790Z,8.94
2023-03-25T23:30:40.201Z,9.00
2023-03-25T23:35:44.570Z,9.07
2023-03-25T23:40:54.936Z,9.16
2023-03-25T23:45:58.659Z,9.19
2023-03-25T23:51:03.267Z,9.19
2023-03-25T23:56:08.363Z,9.25
